createdAt,value
2022-11-02T12:18:56.933Z,5.63
2022-11-02T12:19:56.901Z,5.63
2022-11-02T12:20:56.889Z,5.63
2022-11-02T12:21:56.873Z,5.63
2022-11-02T12:22:56.866Z,5.63
2022-11-02T12:23:56.924Z,5.63
2022-11-02T12:24:56.810Z,5.63
2022-11-02T12:25:59.248Z,5.63
2022-11-02T12:26:56.775Z,5.63
2022-11-02T12:27:56.793Z,5.63
2022-11-02T12:28:56.741Z,5.63
2022-11-02T12:29:56.781Z,5.63
2022-11-02T12:30:56.723Z,5.63
2022-11-02T12:32:00.592Z,5.63
2022-11-02T12:32:56.685Z,5.63
2022-11-02T12:36:06.782Z,1479.38
2022-11-02T12:37:35.381Z,1496.25
2022-11-02T12:38:06.996Z,1462.50
2022-11-02T12:39:06.721Z,1456.88
2022-11-02T12:40:06.703Z,1389.38
2022-11-02T12:41:06.694Z,1518.75
2022-11-02T12:42:47.919Z,551.25
2022-11-02T12:44:13.567Z,1338.75
2022-11-02T12:45:13.547Z,1445.63
2022-11-02T12:46:13.534Z,1513.13
2022-11-02T12:47:13.525Z,1451.25
2022-11-02T12:48:13.514Z,1400.63
2022-11-02T12:49:13.479Z,1428.75
2022-11-02T12:50:13.548Z,1423.13
2022-11-02T12:51:13.449Z,1417.50
2022-11-02T12:52:13.458Z,1170.00
2022-11-02T12:57:16.909Z,47514.38
2022-11-02T12:58:16.871Z,47514.38
2022-11-02T12:59:16.857Z,47514.38
2022-11-02T13:00:16.850Z,47514.38
2022-11-02T13:01:16.917Z,47514.38
2022-11-02T13:02:16.819Z,47514.38
2022-11-02T13:04:35.447Z,1586.25
2022-11-02T13:05:31.838Z,1518.75
2022-11-02T13:06:31.836Z,1530.00
2022-11-02T13:07:31.828Z,1636.88
2022-11-02T13:08:31.798Z,1479.38
2022-11-02T13:22:36.285Z,804.38
2022-11-02T13:29:33.719Z,455.63
2022-11-02T13:30:33.682Z,562.50
2022-11-02T13:31:33.684Z,770.63
2022-11-02T13:32:34.263Z,956.25
2022-11-02T13:33:33.648Z,995.63
2022-11-02T13:34:33.614Z,315.00
2022-11-02T13:35:55.948Z,376.88
2022-11-02T13:36:55.937Z,360.00
2022-11-02T13:37:55.918Z,360.00
2022-11-02T13:38:55.890Z,360.00
2022-11-02T14:02:34.653Z,326.25
2022-11-02T14:04:27.136Z,365.63
2022-11-02T14:05:27.103Z,320.63
